Time;durP1;ratioP1;P1;durP2;ratioP2;P2;SDS_P1;SDS_P2;PMS_P1;PMS_P2;Temp;Humidity;BMP_temperature;BMP_pressure;BME280_temperature;BME280_humidity;BME280_pressure;Samples;Min_cycle;Max_cycle;Signal;HPM_P1;HPM_P2
2023/12/15 00:00:40;;;;;;;282.67;35.13;;;7.70;99.90;;;;;;5080931;28;20274;-65
2023/12/15 00:03:07;;;;;;;230.17;33.60;;;7.70;99.90;;;;;;5084940;28;20207;-65
2023/12/15 00:05:34;;;;;;;272.87;32.47;;;7.70;99.90;;;;;;5078227;28;20199;-65
2023/12/15 00:08:02;;;;;;;144.87;30.27;;;7.70;99.90;;;;;;5078829;28;20536;-65
2023/12/15 00:10:30;;;;;;;80.27;27.40;;;7.60;99.90;;;;;;5083877;28;20687;-65
2023/12/15 00:12:57;;;;;;;93.40;27.90;;;7.60;99.90;;;;;;5078254;28;20633;-66
2023/12/15 00:15:24;;;;;;;180.27;30.83;;;7.60;99.90;;;;;;5079910;28;20207;-65
2023/12/15 00:17:51;;;;;;;143.87;27.67;;;7.50;99.90;;;;;;5083668;28;20194;-65
2023/12/15 00:20:18;;;;;;;142.80;30.00;;;7.50;99.90;;;;;;5084291;28;20200;-66
2023/12/15 00:22:49;;;;;;;86.03;26.37;;;7.50;99.90;;;;;;5088076;28;20202;-66
2023/12/15 00:25:17;;;;;;;70.27;30.20;;;7.40;99.90;;;;;;5084423;28;20221;-66
2023/12/15 00:27:44;;;;;;;77.80;27.83;;;7.40;99.90;;;;;;5079366;28;20221;-66
2023/12/15 00:30:12;;;;;;;95.77;29.37;;;7.40;99.90;;;;;;5084083;28;20213;-65
2023/12/15 00:32:39;;;;;;;60.30;28.43;;;7.40;99.90;;;;;;5081947;28;20209;-65
2023/12/15 00:35:07;;;;;;;103.70;29.47;;;7.40;99.90;;;;;;5082000;28;20200;-67
2023/12/15 00:37:34;;;;;;;231.77;30.20;;;7.50;99.90;;;;;;5081860;28;20305;-65
2023/12/15 00:40:02;;;;;;;138.43;29.77;;;7.40;99.90;;;;;;5085274;28;20206;-65
2023/12/15 00:42:29;;;;;;;102.87;28.30;;;7.50;99.90;;;;;;5086297;28;20292;-65
2023/12/15 00:44:56;;;;;;;53.13;27.53;;;7.40;99.90;;;;;;5080337;28;20729;-65
2023/12/15 00:47:23;;;;;;;82.53;28.53;;;7.40;99.90;;;;;;5077583;28;20209;-66
2023/12/15 00:49:51;;;;;;;82.17;26.87;;;7.40;99.90;;;;;;5084058;28;20691;-66
2023/12/15 00:52:18;;;;;;;53.03;26.83;;;7.50;99.90;;;;;;5083827;28;20237;-65
2023/12/15 00:54:45;;;;;;;94.03;29.17;;;7.50;99.90;;;;;;5079351;28;20280;-65
2023/12/15 00:57:12;;;;;;;84.97;30.67;;;7.50;99.90;;;;;;5082387;28;20616;-65
2023/12/15 00:59:39;;;;;;;97.03;28.70;;;7.50;99.90;;;;;;5079858;28;20207;-66
2023/12/15 01:02:07;;;;;;;69.87;27.73;;;7.50;99.90;;;;;;5085143;28;20603;-66
2023/12/15 01:04:35;;;;;;;121.40;31.47;;;7.50;99.90;;;;;;5082206;28;20572;-65
2023/12/15 01:07:02;;;;;;;108.23;30.30;;;7.50;99.90;;;;;;5076630;28;20708;-65
2023/12/15 01:09:29;;;;;;;53.87;27.83;;;7.50;99.90;;;;;;5079631;28;20226;-65
2023/12/15 01:11:57;;;;;;;76.90;28.97;;;7.50;99.90;;;;;;5082807;28;20661;-65
2023/12/15 01:14:24;;;;;;;89.97;30.83;;;7.50;99.90;;;;;;5083695;28;20205;-65
2023/12/15 01:16:51;;;;;;;58.07;26.10;;;7.40;99.90;;;;;;5084597;28;20196;-66
2023/12/15 01:19:18;;;;;;;51.57;27.47;;;7.50;99.90;;;;;;5079124;28;20203;-65
2023/12/15 01:21:45;;;;;;;58.40;27.20;;;7.40;99.90;;;;;;5083051;28;20210;-65
2023/12/15 01:24:13;;;;;;;63.30;25.57;;;7.50;99.90;;;;;;5080213;28;20202;-65
2023/12/15 01:26:40;;;;;;;73.97;26.87;;;7.40;99.90;;;;;;5081626;28;20293;-66
2023/12/15 01:29:07;;;;;;;99.47;27.03;;;7.40;99.90;;;;;;5083382;28;20604;-65
2023/12/15 01:31:35;;;;;;;51.40;26.87;;;7.40;99.90;;;;;;5082233;28;20193;-66
2023/12/15 01:34:02;;;;;;;84.90;27.60;;;7.40;99.90;;;;;;5084383;28;20232;-65
2023/12/15 01:36:29;;;;;;;61.20;26.23;;;7.40;99.90;;;;;;5087382;28;21073;-65
2023/12/15 01:38:56;;;;;;;60.67;26.07;;;7.40;99.90;;;;;;5081154;28;20220;-65
2023/12/15 01:41:23;;;;;;;51.87;26.63;;;7.30;99.90;;;;;;5080260;28;20209;-65
2023/12/15 01:43:51;;;;;;;63.47;23.97;;;7.40;99.90;;;;;;5084603;28;20520;-65
2023/12/15 01:46:18;;;;;;;49.57;24.07;;;7.40;99.90;;;;;;5083463;28;20217;-65
2023/12/15 01:48:45;;;;;;;97.93;26.03;;;7.40;99.90;;;;;;5086335;28;20574;-65
2023/12/15 01:51:14;;;;;;;114.43;25.33;;;7.30;99.90;;;;;;5084965;28;20288;-65
2023/12/15 01:53:43;;;;;;;130.80;27.90;;;7.30;99.90;;;;;;5084725;28;20202;-65
2023/12/15 01:56:10;;;;;;;187.40;28.13;;;7.30;99.90;;;;;;5077735;28;20663;-65
2023/12/15 01:58:38;;;;;;;99.33;24.83;;;7.20;99.90;;;;;;5088787;28;20307;-65
2023/12/15 02:01:08;;;;;;;172.07;28.10;;;7.20;99.90;;;;;;5092961;28;20250;-66
2023/12/15 02:03:35;;;;;;;111.60;26.10;;;7.10;99.90;;;;;;5082402;28;20201;-66
2023/12/15 02:06:03;;;;;;;69.90;26.70;;;7.10;99.90;;;;;;5086454;28;20198;-65
2023/12/15 02:08:30;;;;;;;112.57;28.63;;;7.00;99.90;;;;;;5081142;28;20290;-65
2023/12/15 02:10:57;;;;;;;133.07;28.53;;;7.00;99.90;;;;;;5084347;28;20226;-65
2023/12/15 02:13:25;;;;;;;119.00;28.57;;;7.00;99.90;;;;;;5091445;28;20194;-65
2023/12/15 02:15:52;;;;;;;119.87;27.40;;;6.90;99.90;;;;;;5089969;28;20303;-65
2023/12/15 02:18:19;;;;;;;156.10;26.97;;;6.90;99.90;;;;;;5085810;28;20196;-65
2023/12/15 02:20:46;;;;;;;123.40;25.50;;;6.90;99.90;;;;;;5090452;28;20212;-65
2023/12/15 02:23:13;;;;;;;77.80;24.43;;;6.80;99.90;;;;;;5087167;28;20197;-66
2023/12/15 02:25:41;;;;;;;90.47;24.37;;;6.70;99.90;;;;;;5083806;28;20593;-65
2023/12/15 02:28:08;;;;;;;89.77;24.13;;;6.70;99.90;;;;;;5086525;28;20239;-65
2023/12/15 02:30:35;;;;;;;53.33;20.97;;;6.60;99.90;;;;;;5081937;28;20639;-65
2023/12/15 02:33:02;;;;;;;110.33;22.43;;;6.50;99.90;;;;;;5082641;28;20280;-65
2023/12/15 02:35:29;;;;;;;85.70;22.20;;;6.50;99.90;;;;;;5085877;28;20198;-65
2023/12/15 02:37:56;;;;;;;80.93;23.13;;;6.40;99.90;;;;;;5082154;28;20202;-65
2023/12/15 02:40:23;;;;;;;67.97;21.40;;;6.40;99.90;;;;;;5084372;28;20203;-66
2023/12/15 02:42:51;;;;;;;158.70;22.70;;;6.30;99.90;;;;;;5086746;28;20216;-66
2023/12/15 02:45:18;;;;;;;95.90;22.87;;;6.30;99.90;;;;;;5091238;28;20288;-65
2023/12/15 02:47:45;;;;;;;117.40;26.57;;;6.40;99.90;;;;;;5084610;28;20198;-65
2023/12/15 02:50:12;;;;;;;93.17;23.70;;;6.30;99.90;;;;;;5083583;28;20295;-65
2023/12/15 02:52:39;;;;;;;81.10;21.17;;;6.30;99.90;;;;;;5084611;28;20186;-65
2023/12/15 02:55:07;;;;;;;89.27;21.83;;;6.40;99.90;;;;;;5080536;28;20866;-65
2023/12/15 02:57:35;;;;;;;88.87;25.27;;;6.40;99.90;;;;;;5079888;28;20528;-65
2023/12/15 03:00:03;;;;;;;79.43;22.53;;;6.40;99.90;;;;;;5086650;28;20205;-65
2023/12/15 03:02:30;;;;;;;55.43;22.57;;;6.30;99.90;;;;;;5085482;28;20216;-65
2023/12/15 03:04:57;;;;;;;87.30;25.37;;;6.40;99.90;;;;;;5081756;28;20650;-65
2023/12/15 03:07:24;;;;;;;85.53;23.47;;;6.40;99.90;;;;;;5089604;28;20198;-65
2023/12/15 03:09:51;;;;;;;77.00;21.87;;;6.40;99.90;;;;;;5081600;28;20250;-65
2023/12/15 03:12:18;;;;;;;73.43;20.57;;;6.40;99.90;;;;;;5086260;28;20225;-67
2023/12/15 03:14:45;;;;;;;94.17;22.20;;;6.40;99.90;;;;;;5082702;28;20201;-66
2023/12/15 03:17:12;;;;;;;78.70;21.57;;;6.40;99.90;;;;;;5081647;28;20251;-65
2023/12/15 03:19:40;;;;;;;96.87;22.43;;;6.50;99.90;;;;;;5082516;28;20206;-65
2023/12/15 03:22:07;;;;;;;93.03;21.50;;;6.50;99.90;;;;;;5083142;28;20216;-65
2023/12/15 03:24:34;;;;;;;79.37;21.57;;;6.50;99.90;;;;;;5082782;28;20202;-65
2023/12/15 03:27:01;;;;;;;77.10;21.17;;;6.50;99.90;;;;;;5083717;28;20646;-65
2023/12/15 03:29:28;;;;;;;84.70;21.13;;;6.50;99.90;;;;;;5088421;28;20261;-65
2023/12/15 03:31:56;;;;;;;95.53;21.20;;;6.50;99.90;;;;;;5081675;28;20255;-65
2023/12/15 03:34:23;;;;;;;102.23;23.63;;;6.50;99.90;;;;;;5081565;28;20667;-65
2023/12/15 03:36:50;;;;;;;87.10;23.13;;;6.40;99.90;;;;;;5083885;28;20202;-66
2023/12/15 03:39:17;;;;;;;95.23;22.40;;;6.40;99.90;;;;;;5081094;28;20627;-65
2023/12/15 03:41:44;;;;;;;46.80;18.87;;;6.40;99.90;;;;;;5082718;28;20209;-65
2023/12/15 03:44:12;;;;;;;73.67;20.20;;;6.40;99.90;;;;;;5081782;28;20695;-65
2023/12/15 03:46:39;;;;;;;62.63;23.03;;;6.40;99.90;;;;;;5090818;28;20245;-65
2023/12/15 03:49:06;;;;;;;50.10;18.87;;;6.30;99.90;;;;;;5082277;28;20275;-66
2023/12/15 03:51:33;;;;;;;59.20;19.37;;;6.30;99.90;;;;;;5083605;28;20235;-65
2023/12/15 03:54:01;;;;;;;66.57;18.93;;;6.30;99.90;;;;;;5081005;28;20250;-65
2023/12/15 03:56:28;;;;;;;76.30;18.77;;;6.30;99.90;;;;;;5083488;28;20231;-65
2023/12/15 03:58:55;;;;;;;72.27;19.00;;;6.30;99.90;;;;;;5085013;28;20205;-66
2023/12/15 04:01:22;;;;;;;93.93;19.37;;;6.20;99.90;;;;;;5076080;28;20632;-65
2023/12/15 04:03:49;;;;;;;56.37;17.87;;;6.20;99.90;;;;;;5081702;28;20329;-65
2023/12/15 04:06:16;;;;;;;57.33;20.77;;;6.10;99.90;;;;;;5078274;28;20216;-65
2023/12/15 04:08:43;;;;;;;58.33;18.53;;;6.10;99.90;;;;;;5089454;28;20211;-65
2023/12/15 04:11:10;;;;;;;55.13;20.50;;;6.10;99.90;;;;;;5081035;28;20657;-65
2023/12/15 04:13:37;;;;;;;70.17;20.23;;;6.10;99.90;;;;;;5081346;28;20213;-65
2023/12/15 04:16:05;;;;;;;41.77;18.60;;;6.00;99.90;;;;;;5085434;28;20259;-65
2023/12/15 04:18:33;;;;;;;59.17;18.60;;;6.00;99.90;;;;;;5082435;28;20597;-65
2023/12/15 04:21:03;;;;;;;69.30;17.40;;;6.00;99.90;;;;;;5085664;28;20206;-65
2023/12/15 04:23:31;;;;;;;58.30;19.17;;;6.00;99.90;;;;;;5087318;28;20197;-65
2023/12/15 04:25:58;;;;;;;57.43;16.17;;;6.00;99.90;;;;;;5081116;28;20200;-66
2023/12/15 04:28:26;;;;;;;52.33;16.60;;;6.00;99.90;;;;;;5083956;28;20511;-66
2023/12/15 04:30:53;;;;;;;39.13;16.50;;;5.90;99.90;;;;;;5081637;28;20233;-65
2023/12/15 04:33:21;;;;;;;66.53;17.77;;;5.80;99.90;;;;;;5080221;28;20217;-65
2023/12/15 04:35:48;;;;;;;53.73;16.97;;;5.80;99.90;;;;;;5079601;28;20271;-65
2023/12/15 04:38:15;;;;;;;60.47;17.23;;;5.70;99.90;;;;;;5079153;28;20204;-65
2023/12/15 04:40:42;;;;;;;50.63;16.93;;;5.60;99.90;;;;;;5082493;28;20562;-66
2023/12/15 04:43:09;;;;;;;46.63;16.20;;;5.50;99.90;;;;;;5081650;28;20217;-65
2023/12/15 04:45:37;;;;;;;61.97;18.83;;;5.50;99.90;;;;;;5086215;28;20213;-65
2023/12/15 04:48:05;;;;;;;60.77;18.77;;;5.40;99.90;;;;;;5083048;28;20197;-65
2023/12/15 04:50:32;;;;;;;47.37;19.30;;;5.40;99.90;;;;;;5081053;28;20213;-65
2023/12/15 04:53:04;;;;;;;65.00;21.07;;;5.40;99.90;;;;;;5083508;28;20247;-66
2023/12/15 04:55:31;;;;;;;50.17;22.77;;;5.40;99.90;;;;;;5077975;28;20292;-66
2023/12/15 04:57:58;;;;;;;44.50;20.03;;;5.40;99.90;;;;;;5086317;28;20228;-66
2023/12/15 05:00:26;;;;;;;73.90;22.30;;;5.40;99.90;;;;;;5077113;28;20658;-66
2023/12/15 05:02:53;;;;;;;65.10;21.00;;;5.40;99.90;;;;;;5078638;28;20201;-65
2023/12/15 05:05:20;;;;;;;54.33;22.30;;;5.50;99.90;;;;;;5077814;28;20239;-66
2023/12/15 05:07:48;;;;;;;54.03;20.70;;;5.50;99.90;;;;;;5081158;28;20197;-66
2023/12/15 05:10:15;;;;;;;58.67;22.00;;;5.60;99.90;;;;;;5085919;28;20213;-66
2023/12/15 05:12:42;;;;;;;57.70;22.33;;;5.60;99.90;;;;;;5079448;28;20186;-65
2023/12/15 05:15:09;;;;;;;51.87;22.30;;;5.70;99.90;;;;;;5083792;28;20694;-66
2023/12/15 05:17:37;;;;;;;64.27;22.00;;;5.70;99.90;;;;;;5081490;28;20258;-66
2023/12/15 05:20:05;;;;;;;62.13;21.20;;;5.80;99.90;;;;;;5080707;28;20530;-65
2023/12/15 05:22:33;;;;;;;60.13;21.80;;;5.80;99.90;;;;;;5085449;28;20201;-65
2023/12/15 05:25:00;;;;;;;53.27;22.27;;;5.90;99.90;;;;;;5082132;28;20194;-65
2023/12/15 05:27:27;;;;;;;50.73;22.67;;;5.90;99.90;;;;;;5083782;28;20266;-65
2023/12/15 05:29:54;;;;;;;45.90;22.10;;;5.90;99.90;;;;;;5091852;28;20189;-66
2023/12/15 05:32:21;;;;;;;55.43;21.87;;;5.90;99.90;;;;;;5088863;28;20208;-66
2023/12/15 05:34:48;;;;;;;48.60;21.47;;;5.90;99.90;;;;;;5084954;28;20193;-66
2023/12/15 05:37:15;;;;;;;43.30;22.60;;;5.90;99.90;;;;;;5084830;28;20193;-66
2023/12/15 05:39:44;;;;;;;53.03;23.53;;;5.90;99.90;;;;;;5085952;28;20281;-66
2023/12/15 05:42:11;;;;;;;53.37;22.03;;;6.00;99.90;;;;;;5083299;28;20206;-66
2023/12/15 05:44:40;;;;;;;64.47;22.30;;;6.00;99.90;;;;;;5088316;28;20193;-65
2023/12/15 05:47:07;;;;;;;57.07;21.80;;;6.00;99.90;;;;;;5085429;28;20198;-65
2023/12/15 05:49:40;;;;;;;38.27;21.47;;;6.00;99.90;;;;;;5080657;28;20221;-65
2023/12/15 05:52:09;;;;;;;36.30;20.20;;;6.00;99.90;;;;;;5081447;28;20262;-66
2023/12/15 05:54:39;;;;;;;38.10;21.23;;;6.00;99.90;;;;;;5083776;28;20587;-65
2023/12/15 05:57:07;;;;;;;32.47;19.27;;;6.00;99.90;;;;;;5088615;28;20205;-65
2023/12/15 05:59:38;;;;;;;36.53;20.07;;;6.00;99.90;;;;;;5081994;28;20247;-66
2023/12/15 06:02:06;;;;;;;32.07;19.23;;;6.00;99.90;;;;;;5077402;28;20230;-65
2023/12/15 06:04:33;;;;;;;32.63;18.70;;;6.00;99.90;;;;;;5083856;28;20611;-66
2023/12/15 06:07:00;;;;;;;32.90;18.93;;;6.00;99.90;;;;;;5084163;28;20245;-66
2023/12/15 06:09:27;;;;;;;78.17;19.80;;;6.00;99.90;;;;;;5082150;28;20198;-66
2023/12/15 06:11:55;;;;;;;41.13;20.43;;;6.00;99.90;;;;;;5079236;28;20224;-66
2023/12/15 06:14:22;;;;;;;44.13;19.43;;;5.90;99.90;;;;;;5085059;28;20280;-65
2023/12/15 06:16:49;;;;;;;59.00;18.57;;;5.90;99.90;;;;;;5086784;28;20643;-65
2023/12/15 06:19:16;;;;;;;44.17;19.87;;;5.80;99.90;;;;;;5086517;28;20293;-65
2023/12/15 06:21:43;;;;;;;53.93;21.13;;;5.80;99.90;;;;;;5082888;28;20255;-66
2023/12/15 06:24:10;;;;;;;39.43;19.23;;;5.70;99.90;;;;;;5086433;28;20201;-66
2023/12/15 06:26:37;;;;;;;34.07;18.17;;;5.70;99.90;;;;;;5086987;28;20568;-66
2023/12/15 06:29:05;;;;;;;35.27;19.03;;;5.70;99.90;;;;;;5084715;28;20278;-65
2023/12/15 06:31:32;;;;;;;33.23;18.77;;;5.60;99.90;;;;;;5080240;28;20220;-65
2023/12/15 06:33:59;;;;;;;29.10;18.40;;;5.60;99.90;;;;;;5087233;28;20618;-65
2023/12/15 06:36:26;;;;;;;53.43;21.30;;;5.50;99.90;;;;;;5085299;28;20294;-66
2023/12/15 06:38:56;;;;;;;44.23;18.70;;;5.50;99.90;;;;;;5082546;28;20202;-66
2023/12/15 06:41:23;;;;;;;38.80;18.27;;;5.50;99.90;;;;;;5083546;28;20252;-66
2023/12/15 06:43:51;;;;;;;42.93;20.37;;;5.40;99.90;;;;;;5084394;28;20216;-66
2023/12/15 06:46:18;;;;;;;57.23;21.23;;;5.40;99.90;;;;;;5083706;28;20205;-66
2023/12/15 06:48:46;;;;;;;41.50;18.13;;;5.40;99.90;;;;;;5088306;28;20258;-66
2023/12/15 06:51:13;;;;;;;35.67;17.27;;;5.30;99.90;;;;;;5080751;28;20640;-66
2023/12/15 06:53:40;;;;;;;38.80;18.73;;;5.30;99.90;;;;;;5087231;28;20200;-66
2023/12/15 06:56:08;;;;;;;31.27;18.37;;;5.30;99.90;;;;;;5079890;28;20210;-66
2023/12/15 06:58:35;;;;;;;28.43;17.23;;;5.30;99.90;;;;;;5080815;28;20201;-66
2023/12/15 07:01:03;;;;;;;32.70;17.33;;;5.30;99.90;;;;;;5079876;28;20715;-66
2023/12/15 07:03:30;;;;;;;58.87;17.53;;;5.30;99.90;;;;;;5082668;28;20247;-66
2023/12/15 07:05:57;;;;;;;24.27;17.03;;;5.30;99.90;;;;;;5082343;28;20198;-66
2023/12/15 07:08:24;;;;;;;24.97;17.70;;;5.20;99.90;;;;;;5081632;28;20658;-65
2023/12/15 07:10:52;;;;;;;27.90;17.93;;;5.20;99.90;;;;;;5083087;28;20205;-65
2023/12/15 07:13:19;;;;;;;41.90;18.43;;;5.20;99.90;;;;;;5084331;28;20232;-65
2023/12/15 07:15:46;;;;;;;35.60;18.20;;;5.20;99.90;;;;;;5082639;28;20200;-65
2023/12/15 07:18:13;;;;;;;57.87;17.33;;;5.20;99.90;;;;;;5080352;28;20225;-66
2023/12/15 07:20:40;;;;;;;45.00;17.73;;;5.20;99.90;;;;;;5084334;28;20203;-65
2023/12/15 07:23:07;;;;;;;41.00;17.83;;;5.10;99.90;;;;;;5081898;28;20190;-65
2023/12/15 07:25:37;;;;;;;36.07;17.50;;;5.10;99.90;;;;;;5084402;28;20275;-65
2023/12/15 07:28:04;;;;;;;36.30;16.87;;;5.10;99.90;;;;;;5079320;28;20612;-66
2023/12/15 07:30:31;;;;;;;37.80;18.43;;;5.20;99.90;;;;;;5080913;28;20200;-65
2023/12/15 07:32:59;;;;;;;43.37;16.30;;;5.20;99.90;;;;;;5082987;28;20232;-66
2023/12/15 07:35:26;;;;;;;61.77;16.47;;;5.20;99.90;;;;;;5085549;28;20275;-65
2023/12/15 07:37:59;;;;;;;42.97;16.60;;;5.20;99.90;;;;;;5084372;28;20530;-65
2023/12/15 07:40:26;;;;;;;41.20;16.83;;;5.20;99.90;;;;;;5081342;28;20228;-66
2023/12/15 07:42:54;;;;;;;40.17;17.60;;;5.20;99.90;;;;;;5084060;28;20202;-66
2023/12/15 07:45:21;;;;;;;44.37;15.57;;;5.20;99.90;;;;;;5079834;28;20202;-65
2023/12/15 07:47:48;;;;;;;41.80;15.67;;;5.30;99.90;;;;;;5082934;28;20681;-66
2023/12/15 07:50:16;;;;;;;36.20;16.03;;;5.30;99.90;;;;;;5084028;28;20212;-66
2023/12/15 07:52:43;;;;;;;48.73;16.60;;;5.30;99.90;;;;;;5084187;28;20270;-65
2023/12/15 07:55:10;;;;;;;27.00;14.50;;;5.30;99.90;;;;;;5078916;28;20231;-65
2023/12/15 07:57:39;;;;;;;49.60;16.90;;;5.30;99.90;;;;;;5077971;28;20559;-65
2023/12/15 08:00:11;;;;;;;28.93;16.00;;;5.30;99.90;;;;;;5080246;28;20221;-66
2023/12/15 08:02:39;;;;;;;37.40;17.27;;;5.30;99.90;;;;;;5075370;28;20288;-66
2023/12/15 08:05:06;;;;;;;42.83;15.83;;;5.30;99.90;;;;;;5081020;28;20212;-65
2023/12/15 08:07:33;;;;;;;34.67;16.00;;;5.30;99.90;;;;;;5077960;28;20284;-65
2023/12/15 08:10:01;;;;;;;41.30;17.27;;;5.30;99.90;;;;;;5076369;28;20216;-64
2023/12/15 08:12:28;;;;;;;19.73;15.33;;;5.40;99.90;;;;;;5077902;28;20297;-65
2023/12/15 08:14:55;;;;;;;30.47;16.20;;;5.40;99.90;;;;;;5083677;28;20211;-64
2023/12/15 08:17:22;;;;;;;28.10;15.87;;;5.40;99.90;;;;;;5080656;28;20636;-64
2023/12/15 08:19:49;;;;;;;26.00;16.33;;;5.40;99.90;;;;;;5080132;28;20580;-64
2023/12/15 08:22:16;;;;;;;31.53;16.80;;;5.40;99.90;;;;;;5076723;28;20273;-66
2023/12/15 08:24:43;;;;;;;23.67;15.20;;;5.40;99.90;;;;;;5081048;28;20197;-65
2023/12/15 08:27:12;;;;;;;40.40;16.70;;;5.40;99.90;;;;;;5083249;28;20201;-66
2023/12/15 08:29:42;;;;;;;23.90;16.67;;;5.40;99.90;;;;;;5082836;28;20197;-65
2023/12/15 08:32:09;;;;;;;24.83;16.53;;;5.40;99.90;;;;;;5078830;28;20221;-65
2023/12/15 08:34:36;;;;;;;36.37;18.43;;;5.40;99.90;;;;;;5082505;28;20291;-66
2023/12/15 08:37:03;;;;;;;30.87;17.50;;;5.40;99.90;;;;;;5080653;28;20628;-65
2023/12/15 08:39:30;;;;;;;33.70;18.00;;;5.40;99.90;;;;;;5083653;28;20203;-65
2023/12/15 08:41:57;;;;;;;47.13;17.77;;;5.40;99.90;;;;;;5075374;28;20558;-64
2023/12/15 08:44:24;;;;;;;50.07;18.33;;;5.40;99.90;;;;;;5086085;28;20250;-64
2023/12/15 08:47:00;;;;;;;36.73;19.60;;;5.40;99.90;;;;;;5079027;28;20207;-64
2023/12/15 08:49:27;;;;;;;56.43;22.47;;;5.40;99.90;;;;;;5078721;28;20295;-66
2023/12/15 08:51:55;;;;;;;53.97;20.10;;;5.50;99.90;;;;;;5078554;28;20228;-64
2023/12/15 08:54:22;;;;;;;49.43;21.47;;;5.60;99.90;;;;;;5081262;28;20198;-66
2023/12/15 08:56:50;;;;;;;69.03;21.23;;;5.60;99.90;;;;;;5081904;28;20209;-65
2023/12/15 08:59:17;;;;;;;53.53;20.63;;;5.70;99.90;;;;;;5081203;28;20239;-65
2023/12/15 09:01:44;;;;;;;78.73;21.73;;;5.70;99.90;;;;;;5083409;28;20682;-65
2023/12/15 09:04:11;;;;;;;68.03;23.27;;;5.70;99.90;;;;;;5085737;28;20419;-65
2023/12/15 09:06:38;;;;;;;54.17;22.17;;;5.80;99.90;;;;;;5086721;28;20248;-65
2023/12/15 09:09:11;;;;;;;109.03;25.40;;;5.80;99.90;;;;;;5083131;28;20209;-65
2023/12/15 09:11:39;;;;;;;59.20;21.53;;;5.90;99.90;;;;;;5085796;28;20237;-64
2023/12/15 09:14:06;;;;;;;91.60;23.03;;;5.90;99.90;;;;;;5081399;28;20652;-65
2023/12/15 09:16:34;;;;;;;77.07;23.20;;;6.00;99.90;;;;;;5089352;28;20277;-63
2023/12/15 09:19:01;;;;;;;56.80;23.50;;;6.10;99.90;;;;;;5083251;28;20278;-64
2023/12/15 09:21:28;;;;;;;55.27;21.83;;;6.10;99.90;;;;;;5081706;28;20205;-65
2023/12/15 09:23:56;;;;;;;54.20;22.87;;;6.10;99.90;;;;;;5086739;28;20617;-66
2023/12/15 09:26:25;;;;;;;44.77;24.30;;;6.10;99.90;;;;;;5088369;28;20201;-63
2023/12/15 09:28:53;;;;;;;46.43;23.23;;;6.10;99.90;;;;;;5088498;28;20220;-64
2023/12/15 09:31:20;;;;;;;41.47;24.93;;;6.10;99.90;;;;;;5085555;28;20221;-65
2023/12/15 09:33:48;;;;;;;65.60;24.93;;;6.20;99.90;;;;;;5083237;28;20189;-65
2023/12/15 09:36:16;;;;;;;60.47;26.27;;;6.20;99.90;;;;;;5084728;28;20209;-65
2023/12/15 09:38:43;;;;;;;51.93;26.83;;;6.30;99.90;;;;;;5083878;28;20185;-64
2023/12/15 09:41:10;;;;;;;43.73;26.83;;;6.30;99.90;;;;;;5086379;28;20262;-64
2023/12/15 09:43:38;;;;;;;44.43;26.33;;;6.40;99.90;;;;;;5080851;28;20223;-64
2023/12/15 09:46:06;;;;;;;43.87;27.23;;;6.50;99.90;;;;;;5084733;28;20261;-65
2023/12/15 09:48:34;;;;;;;48.90;28.73;;;6.50;99.90;;;;;;5084317;28;20205;-64
2023/12/15 09:51:05;;;;;;;47.70;28.40;;;6.70;99.90;;;;;;5084226;28;20194;-66
2023/12/15 09:53:35;;;;;;;43.20;26.60;;;6.70;99.90;;;;;;5088992;28;20506;-64
2023/12/15 09:56:03;;;;;;;46.57;26.67;;;6.80;99.90;;;;;;5086269;28;20650;-65
2023/12/15 09:58:31;;;;;;;43.70;26.30;;;6.80;99.90;;;;;;5079907;28;20288;-65
2023/12/15 10:00:58;;;;;;;47.00;26.70;;;6.90;99.90;;;;;;5081852;28;20236;-64
2023/12/15 10:03:25;;;;;;;46.47;26.73;;;6.90;99.90;;;;;;5081811;28;20624;-65
2023/12/15 10:05:52;;;;;;;49.90;27.13;;;7.00;99.90;;;;;;5085222;28;20201;-65
2023/12/15 10:08:23;;;;;;;40.87;26.23;;;7.10;99.90;;;;;;5082632;28;20281;-65
2023/12/15 10:10:51;;;;;;;52.23;27.77;;;7.20;99.90;;;;;;5079956;28;20203;-64
2023/12/15 10:13:19;;;;;;;53.13;29.37;;;7.20;99.90;;;;;;5084153;28;20665;-65
2023/12/15 10:15:52;;;;;;;47.63;29.13;;;7.30;99.90;;;;;;5087425;28;20519;-66
2023/12/15 10:18:19;;;;;;;48.97;30.87;;;7.40;99.90;;;;;;5083081;28;20204;-65
2023/12/15 10:21:01;;;;;;;51.27;29.57;;;7.50;99.90;;;;;;5083042;28;20198;-64
2023/12/15 10:23:29;;;;;;;48.27;31.27;;;7.70;99.90;;;;;;5082236;28;20244;-64
2023/12/15 10:25:58;;;;;;;48.63;29.83;;;7.80;99.90;;;;;;5087154;28;20225;-66
2023/12/15 10:28:26;;;;;;;46.20;28.23;;;7.90;99.90;;;;;;5081643;28;20197;-66
2023/12/15 10:30:53;;;;;;;45.80;28.27;;;8.00;99.90;;;;;;5085096;28;20262;-66
2023/12/15 10:33:21;;;;;;;49.47;29.40;;;8.10;99.90;;;;;;5081500;28;20675;-65
2023/12/15 10:35:49;;;;;;;50.73;30.50;;;8.00;99.90;;;;;;5083881;28;20196;-65
2023/12/15 10:38:16;;;;;;;52.00;32.20;;;7.90;99.90;;;;;;5081900;28;20208;-65
2023/12/15 10:40:44;;;;;;;48.50;32.40;;;8.00;99.90;;;;;;5082258;28;20907;-64
2023/12/15 10:43:11;;;;;;;50.23;32.43;;;8.10;99.90;;;;;;5082403;28;20194;-66
2023/12/15 10:45:38;;;;;;;47.03;29.53;;;8.20;99.90;;;;;;5087488;28;20574;-65
2023/12/15 10:48:07;;;;;;;46.17;29.37;;;8.30;99.90;;;;;;5082266;28;20253;-67
2023/12/15 10:50:39;;;;;;;47.60;31.37;;;8.40;99.90;;;;;;5080371;28;20609;-65
2023/12/15 10:53:06;;;;;;;50.37;29.83;;;8.50;99.90;;;;;;5079611;28;20213;-65
2023/12/15 10:55:34;;;;;;;46.67;29.27;;;8.60;99.90;;;;;;5079932;28;20199;-66
2023/12/15 10:58:01;;;;;;;44.53;27.50;;;8.70;99.90;;;;;;5081173;28;20197;-66
2023/12/15 11:00:31;;;;;;;46.47;28.80;;;8.70;99.90;;;;;;5084537;28;20235;-66
2023/12/15 11:03:00;;;;;;;43.07;29.10;;;8.80;99.90;;;;;;5078070;28;20585;-67
2023/12/15 11:05:27;;;;;;;46.50;29.90;;;8.80;99.90;;;;;;5081449;28;20928;-66
2023/12/15 11:08:04;;;;;;;48.50;29.80;;;8.90;99.90;;;;;;5083697;28;20221;-65
2023/12/15 11:10:31;;;;;;;48.37;29.67;;;8.90;99.90;;;;;;5084201;28;20207;-65
2023/12/15 11:12:58;;;;;;;48.50;31.03;;;8.90;99.90;;;;;;5078976;28;20223;-65
2023/12/15 11:15:26;;;;;;;48.90;31.27;;;8.90;99.90;;;;;;5087451;28;20281;-65
2023/12/15 11:17:56;;;;;;;48.73;31.63;;;9.00;99.90;;;;;;5081668;28;20201;-64
2023/12/15 11:20:25;;;;;;;56.33;31.70;;;9.10;99.90;;;;;;5082304;28;20291;-66
2023/12/15 11:22:56;;;;;;;46.63;30.83;;;9.20;99.90;;;;;;5081577;28;20197;-65
2023/12/15 11:25:30;;;;;;;50.37;31.43;;;9.30;99.90;;;;;;5085801;28;20206;-64
2023/12/15 11:28:15;;;;;;;44.97;31.10;;;9.40;99.90;;;;;;5078601;28;20223;-65
2023/12/15 11:30:52;;;;;;;45.63;30.37;;;9.50;99.90;;;;;;5084677;28;20701;-65
2023/12/15 11:33:26;;;;;;;48.53;30.63;;;9.50;99.90;;;;;;5081997;28;20218;-65
2023/12/15 11:36:01;;;;;;;42.13;28.97;;;9.50;99.90;;;;;;5084748;28;20207;-64
2023/12/15 11:38:29;;;;;;;46.80;30.40;;;9.60;99.90;;;;;;5084912;28;20223;-66
2023/12/15 11:40:57;;;;;;;50.10;30.00;;;9.70;99.90;;;;;;5082402;28;20190;-64
2023/12/15 11:43:24;;;;;;;47.17;31.13;;;9.70;99.90;;;;;;5082319;28;20287;-65
2023/12/15 11:45:53;;;;;;;48.50;29.57;;;9.80;99.90;;;;;;5086158;28;20194;-65
2023/12/15 11:48:39;;;;;;;43.03;30.73;;;9.90;99.90;;;;;;5084120;28;20292;-65
2023/12/15 11:51:10;;;;;;;45.20;31.40;;;10.10;99.90;;;;;;5084320;28;20284;-65
2023/12/15 11:53:41;;;;;;;42.00;29.50;;;10.30;99.90;;;;;;5078620;28;20204;-62
2023/12/15 11:56:11;;;;;;;44.37;28.50;;;10.50;99.90;;;;;;5082911;28;20194;-65
2023/12/15 11:58:39;;;;;;;42.20;28.97;;;10.80;99.90;;;;;;5083727;28;20507;-64
2023/12/15 12:01:08;;;;;;;39.57;28.20;;;10.90;99.90;;;;;;5078103;28;20752;-64
2023/12/15 12:03:36;;;;;;;35.47;27.30;;;11.10;99.90;;;;;;5079319;28;20200;-64
2023/12/15 12:06:05;;;;;;;38.87;26.77;;;11.20;99.90;;;;;;5081937;28;20213;-64
2023/12/15 12:08:33;;;;;;;36.47;26.47;;;11.30;99.90;;;;;;5081208;28;20204;-64
2023/12/15 12:11:04;;;;;;;38.50;26.13;;;11.40;99.90;;;;;;5078579;28;20323;-66
2023/12/15 12:13:37;;;;;;;36.57;26.53;;;11.60;99.90;;;;;;5075321;28;20309;-64
2023/12/15 12:16:05;;;;;;;38.33;26.73;;;11.70;99.90;;;;;;5079452;28;20235;-64
2023/12/15 12:18:32;;;;;;;33.80;24.50;;;11.80;99.90;;;;;;5082513;28;20697;-64
2023/12/15 12:21:05;;;;;;;34.20;24.67;;;11.90;99.70;;;;;;5079612;28;20283;-64
2023/12/15 12:23:33;;;;;;;38.97;27.00;;;12.00;99.40;;;;;;5085141;28;20704;-63
2023/12/15 12:26:12;;;;;;;39.37;27.13;;;12.10;99.10;;;;;;5080129;28;20557;-64
2023/12/15 12:28:50;;;;;;;44.63;28.87;;;12.10;98.60;;;;;;5077183;28;20193;-63
2023/12/15 12:31:18;;;;;;;43.00;29.00;;;12.10;98.10;;;;;;5083223;28;20212;-63
2023/12/15 12:33:46;;;;;;;47.90;32.40;;;12.10;98.00;;;;;;5083802;28;20232;-64
2023/12/15 12:36:17;;;;;;;50.87;32.93;;;12.00;97.70;;;;;;5083488;28;20585;-63
2023/12/15 12:38:45;;;;;;;51.07;34.77;;;12.00;97.60;;;;;;5088180;28;20241;-64